createdAt,value
2023-05-14T00:00:32.353Z,68.12
2023-05-14T00:03:56.525Z,68.32
2023-05-14T00:07:00.500Z,67.83
2023-05-14T00:10:04.592Z,67.60
2023-05-14T00:13:08.207Z,67.15
2023-05-14T00:16:13.649Z,67.23
2023-05-14T00:19:18.895Z,66.87
2023-05-14T00:22:22.901Z,67.25
2023-05-14T00:25:26.585Z,67.14
2023-05-14T00:28:33.004Z,66.86
2023-05-14T00:31:37.925Z,67.12
2023-05-14T00:34:41.807Z,66.89
2023-05-14T00:37:46.508Z,66.36
2023-05-14T00:40:52.121Z,66.55
2023-05-14T00:43:55.627Z,66.00
2023-05-14T00:47:01.904Z,66.84
2023-05-14T00:50:06.552Z,67.23
2023-05-14T00:53:11.474Z,67.87
2023-05-14T00:56:16.665Z,68.00
2023-05-14T00:59:20.741Z,67.05
2023-05-14T01:02:25.807Z,66.71
2023-05-14T01:05:36.760Z,66.21
2023-05-14T01:08:50.819Z,66.39
2023-05-14T01:12:02.296Z,67.00
2023-05-14T01:15:12.552Z,66.87
2023-05-14T01:18:20.324Z,67.05
2023-05-14T01:21:38.813Z,66.80
2023-05-14T01:24:42.597Z,66.67
2023-05-14T01:27:54.351Z,67.98
2023-05-14T01:31:03.602Z,68.38
2023-05-14T01:34:08.088Z,68.94
2023-05-14T01:37:14.100Z,68.85
2023-05-14T01:40:38.039Z,69.00
2023-05-14T01:43:42.615Z,68.79
2023-05-14T01:46:46.105Z,69.17
2023-05-14T01:49:50.249Z,70.46
2023-05-14T01:52:56.719Z,70.71
2023-05-14T01:56:00.824Z,70.01
2023-05-14T01:59:04.629Z,70.58
2023-05-14T02:02:08.623Z,70.25
2023-05-14T02:05:13.589Z,70.15
2023-05-14T02:08:19.168Z,71.04
2023-05-14T02:11:22.778Z,70.57
2023-05-14T02:14:26.571Z,71.41
2023-05-14T02:17:30.055Z,71.44
2023-05-14T02:20:33.944Z,71.06
2023-05-14T02:23:42.062Z,71.18
2023-05-14T02:26:46.817Z,70.63
2023-05-14T02:29:50.436Z,72.49
2023-05-14T02:32:54.446Z,73.62
2023-05-14T02:35:58.101Z,73.32
2023-05-14T02:39:04.770Z,78.18
2023-05-14T02:42:08.872Z,76.55
2023-05-14T02:45:12.955Z,75.96
2023-05-14T02:48:16.835Z,75.44
2023-05-14T02:51:21.298Z,75.14
2023-05-14T02:54:26.394Z,74.65
2023-05-14T02:57:30.285Z,74.79
2023-05-14T03:00:33.888Z,76.40
2023-05-14T03:03:38.388Z,76.47
2023-05-14T03:06:42.657Z,76.86
2023-05-14T03:09:48.427Z,77.88
2023-05-14T03:12:52.094Z,77.58
2023-05-14T03:15:56.963Z,76.45
2023-05-14T03:19:00.759Z,77.72
2023-05-14T03:22:05.222Z,78.60
2023-05-14T03:25:10.929Z,77.75
2023-05-14T03:28:15.091Z,78.33
2023-05-14T03:31:18.891Z,78.68
2023-05-14T03:34:23.149Z,78.63
2023-05-14T03:37:27.146Z,77.97
2023-05-14T03:40:32.396Z,77.12
2023-05-14T03:43:36.327Z,76.67
2023-05-14T03:46:40.399Z,76.61
2023-05-14T03:49:44.013Z,75.86
2023-05-14T03:52:50.960Z,75.41
2023-05-14T03:55:55.780Z,75.75
2023-05-14T03:58:59.542Z,74.74
2023-05-14T04:02:03.274Z,74.40
2023-05-14T04:05:07.908Z,73.43
2023-05-14T04:08:11.580Z,73.83
2023-05-14T04:11:17.061Z,74.04
2023-05-14T04:14:20.732Z,73.56
2023-05-14T04:17:25.767Z,73.77
2023-05-14T04:20:29.397Z,74.81
2023-05-14T04:23:33.341Z,76.74
2023-05-14T04:26:38.197Z,75.46
2023-05-14T04:29:42.171Z,73.95
2023-05-14T04:32:45.699Z,75.11
2023-05-14T04:35:49.701Z,74.32
2023-05-14T04:38:53.192Z,76.66
2023-05-14T04:41:58.666Z,75.10
2023-05-14T04:45:02.244Z,74.10
2023-05-14T04:48:07.912Z,74.10
2023-05-14T04:51:11.610Z,75.52
2023-05-14T04:54:15.833Z,74.53
2023-05-14T04:57:21.182Z,74.35
2023-05-14T05:00:25.406Z,73.49
2023-05-14T05:03:29.484Z,73.84
2023-05-14T05:06:34.017Z,73.41
2023-05-14T05:09:37.663Z,73.59
2023-05-14T05:12:43.277Z,73.24
2023-05-14T05:16:36.990Z,73.08
2023-05-14T05:19:44.199Z,72.96
2023-05-14T05:22:48.288Z,74.28
2023-05-14T05:25:52.090Z,74.11
2023-05-14T05:28:57.148Z,73.46
2023-05-14T05:32:01.424Z,75.89
2023-05-14T05:35:05.219Z,77.63
2023-05-14T05:38:09.510Z,77.53
2023-05-14T05:41:13.431Z,75.71
2023-05-14T05:44:23.223Z,75.22
2023-05-14T05:47:30.246Z,73.93
2023-05-14T05:50:34.252Z,73.65
2023-05-14T05:53:37.849Z,73.14
2023-05-14T05:56:41.809Z,74.35
2023-05-14T05:59:46.634Z,73.60
2023-05-14T06:02:50.650Z,73.27
2023-05-14T06:05:54.282Z,73.01
2023-05-14T06:08:58.031Z,72.29
2023-05-14T06:12:01.560Z,71.76
2023-05-14T06:15:08.286Z,72.88
2023-05-14T06:18:12.186Z,72.06
2023-05-14T06:21:16.095Z,71.70
2023-05-14T06:24:20.128Z,72.32
2023-05-14T06:27:32.204Z,73.77
2023-05-14T06:34:40.241Z,72.86
2023-05-14T06:37:53.065Z,72.10
2023-05-14T06:41:03.747Z,71.13
2023-05-14T06:44:08.645Z,71.51
2023-05-14T06:47:14.317Z,71.22
2023-05-14T06:50:18.733Z,71.04
2023-05-14T06:53:22.670Z,71.49
2023-05-14T06:56:26.910Z,71.92
2023-05-14T06:59:32.086Z,72.76
2023-05-14T07:02:38.482Z,74.39
2023-05-14T07:11:16.265Z,77.20
2023-05-14T07:14:20.543Z,75.62
2023-05-14T07:17:50.900Z,75.31
2023-05-14T07:20:55.554Z,74.38
2023-05-14T07:23:59.517Z,75.84
2023-05-14T07:27:03.632Z,75.38
2023-05-14T07:30:09.491Z,76.10
2023-05-14T07:33:14.560Z,75.77
2023-05-14T07:36:18.686Z,76.02
2023-05-14T07:39:22.917Z,77.34
2023-05-14T07:42:35.790Z,76.56
2023-05-14T07:45:40.553Z,75.73
2023-05-14T07:48:45.918Z,74.13
2023-05-14T07:51:49.570Z,73.20
2023-05-14T07:54:53.971Z,73.04
2023-05-14T07:57:57.547Z,72.89
2023-05-14T08:01:02.334Z,72.47
2023-05-14T08:04:08.992Z,71.96
2023-05-14T08:07:15.602Z,71.65
2023-05-14T08:10:19.175Z,72.80
2023-05-14T08:13:23.908Z,71.96
2023-05-14T08:16:27.830Z,71.20
2023-05-14T08:19:34.282Z,69.50
2023-05-14T08:22:38.146Z,69.36
2023-05-14T08:25:42.656Z,70.19
2023-05-14T08:28:46.560Z,68.61
2023-05-14T08:31:52.396Z,68.19
2023-05-14T08:34:57.517Z,67.54
2023-05-14T08:38:01.586Z,67.38
2023-05-14T08:41:07.612Z,67.20
2023-05-14T08:44:15.018Z,66.13
2023-05-14T08:47:20.841Z,66.66
2023-05-14T08:50:28.251Z,65.26
2023-05-14T08:53:32.752Z,63.75
2023-05-14T08:56:38.654Z,63.53
2023-05-14T08:59:42.967Z,63.95
2023-05-14T09:02:49.031Z,64.01
2023-05-14T09:05:55.071Z,62.14
2023-05-14T09:08:59.349Z,63.59
2023-05-14T09:12:03.217Z,62.93
2023-05-14T09:15:08.885Z,63.87
2023-05-14T09:18:12.944Z,62.88
2023-05-14T09:21:19.484Z,61.89
2023-05-14T09:24:25.442Z,63.53
2023-05-14T09:27:32.068Z,63.44
2023-05-14T09:30:37.420Z,62.44
2023-05-14T09:33:41.469Z,65.03
2023-05-14T09:36:46.822Z,63.91
2023-05-14T09:39:54.093Z,63.97
2023-05-14T09:43:01.927Z,63.38
2023-05-14T09:46:06.136Z,62.02
2023-05-14T09:49:10.811Z,61.90
2023-05-14T09:52:16.675Z,62.26
2023-05-14T09:55:22.751Z,61.76
2023-05-14T09:58:30.507Z,61.42
2023-05-14T10:01:34.063Z,62.21
2023-05-14T10:04:39.272Z,62.24
2023-05-14T10:08:05.251Z,61.98
2023-05-14T10:11:15.593Z,61.70
2023-05-14T10:14:26.083Z,61.78
2023-05-14T10:17:33.770Z,62.45
2023-05-14T10:20:39.068Z,63.53
2023-05-14T10:23:45.718Z,62.79
2023-05-14T10:26:50.294Z,64.27
2023-05-14T10:29:56.342Z,63.04
2023-05-14T10:33:11.034Z,61.32
2023-05-14T10:36:15.310Z,60.12
2023-05-14T10:39:20.309Z,60.36
2023-05-14T10:42:27.501Z,59.07
2023-05-14T10:45:34.589Z,58.83
2023-05-14T10:48:40.365Z,59.60
2023-05-14T10:51:44.149Z,59.40
2023-05-14T10:54:52.933Z,57.92
2023-05-14T10:58:02.524Z,58.61
2023-05-14T11:01:08.572Z,58.31
2023-05-14T11:04:20.008Z,56.75
2023-05-14T11:07:26.261Z,56.92
2023-05-14T11:10:32.668Z,57.71
2023-05-14T11:13:37.890Z,57.24
2023-05-14T11:16:43.904Z,56.08
2023-05-14T11:19:49.738Z,57.58
2023-05-14T11:22:55.800Z,56.58
2023-05-14T11:26:03.773Z,57.26
2023-05-14T11:29:07.639Z,55.90
2023-05-14T11:32:12.458Z,56.62
2023-05-14T11:35:16.776Z,56.45
2023-05-14T11:38:22.465Z,55.81
2023-05-14T11:41:28.271Z,56.44
2023-05-14T11:44:32.834Z,58.84
2023-05-14T11:47:36.543Z,57.48
2023-05-14T11:50:41.661Z,56.50
2023-05-14T11:53:47.194Z,58.32
2023-05-14T11:56:53.105Z,58.17
2023-05-14T11:59:59.931Z,57.36
2023-05-14T12:03:05.019Z,57.17
2023-05-14T12:06:11.368Z,56.70
2023-05-14T12:09:24.952Z,56.67
2023-05-14T12:12:36.503Z,56.53
2023-05-14T12:15:41.195Z,56.16
2023-05-14T12:18:46.194Z,56.94
2023-05-14T12:21:53.301Z,56.37
2023-05-14T12:24:57.967Z,59.12
2023-05-14T12:28:15.579Z,58.93
2023-05-14T12:31:19.355Z,58.94
2023-05-14T12:34:23.330Z,58.49
2023-05-14T12:37:27.675Z,58.65
2023-05-14T12:40:33.143Z,57.84
2023-05-14T12:43:38.598Z,57.73
2023-05-14T12:46:45.491Z,57.67
2023-05-14T12:49:52.073Z,56.63
2023-05-14T12:52:56.169Z,56.38
2023-05-14T12:56:01.040Z,57.65
2023-05-14T12:59:07.125Z,58.33
2023-05-14T13:02:10.930Z,57.89
2023-05-14T13:05:15.078Z,57.31
2023-05-14T13:08:21.535Z,57.68
2023-05-14T13:11:25.833Z,57.37
2023-05-14T13:14:31.020Z,57.14
2023-05-14T13:17:35.472Z,57.33
2023-05-14T13:20:39.965Z,56.96
2023-05-14T13:23:45.713Z,55.88
2023-05-14T13:26:49.439Z,56.77
2023-05-14T13:29:54.752Z,56.00
2023-05-14T13:32:59.267Z,56.39
2023-05-14T13:36:04.465Z,55.53
2023-05-14T13:39:07.992Z,55.46
2023-05-14T13:42:13.159Z,56.00
2023-05-14T13:45:18.285Z,56.09
2023-05-14T13:48:22.633Z,56.65
2023-05-14T13:51:26.298Z,55.92
2023-05-14T13:54:30.411Z,56.15
2023-05-14T13:57:34.592Z,57.25
2023-05-14T14:00:41.640Z,57.03
2023-05-14T14:03:45.222Z,56.54
2023-05-14T14:06:49.375Z,56.85
2023-05-14T14:09:53.135Z,57.24
2023-05-14T14:12:57.232Z,57.49
2023-05-14T14:16:03.217Z,57.31
2023-05-14T14:19:09.929Z,58.11
2023-05-14T14:22:16.417Z,57.09
2023-05-14T14:25:28.238Z,57.00
2023-05-14T14:28:32.386Z,57.45
2023-05-14T14:31:37.914Z,55.48
2023-05-14T14:34:41.632Z,55.52
2023-05-14T14:37:49.318Z,56.31
2023-05-14T14:40:53.095Z,55.38
2023-05-14T14:43:57.490Z,55.73
2023-05-14T14:47:02.534Z,56.29
2023-05-14T14:50:08.063Z,56.07
2023-05-14T14:53:11.849Z,56.32
2023-05-14T14:56:16.060Z,56.77
2023-05-14T14:59:19.777Z,56.77
2023-05-14T15:02:29.582Z,56.34
2023-05-14T15:05:34.714Z,56.14
2023-05-14T15:08:39.438Z,55.96
2023-05-14T15:11:43.057Z,55.24
2023-05-14T15:14:47.179Z,55.34
2023-05-14T15:17:52.453Z,56.10
2023-05-14T15:20:57.744Z,56.30
2023-05-14T15:24:01.175Z,55.20
2023-05-14T15:27:07.626Z,54.78
2023-05-14T15:30:12.468Z,55.02
2023-05-14T15:33:19.567Z,55.28
2023-05-14T15:36:23.333Z,55.60
2023-05-14T15:39:28.028Z,55.47
2023-05-14T15:42:33.173Z,55.64
2023-05-14T15:45:37.254Z,55.21
2023-05-14T15:48:45.420Z,55.06
2023-05-14T15:51:51.076Z,55.52
2023-05-14T15:54:56.258Z,55.55
2023-05-14T15:58:00.681Z,55.99
2023-05-14T16:01:04.376Z,55.99
2023-05-14T16:04:10.179Z,55.64
2023-05-14T16:07:14.792Z,55.63
2023-05-14T16:10:22.963Z,55.17
2023-05-14T16:13:27.412Z,54.91
2023-05-14T16:16:31.992Z,54.48
2023-05-14T16:19:37.064Z,54.45
2023-05-14T16:22:41.237Z,54.24
2023-05-14T16:25:51.036Z,54.26
2023-05-14T16:28:55.025Z,54.18
2023-05-14T16:31:58.792Z,53.97
2023-05-14T16:35:04.551Z,53.90
2023-05-14T16:38:09.190Z,53.84
2023-05-14T16:41:13.538Z,54.49
2023-05-14T16:44:18.166Z,54.19
2023-05-14T16:47:22.047Z,53.64
2023-05-14T16:50:27.597Z,52.97
2023-05-14T16:53:31.716Z,53.56
2023-05-14T16:56:35.182Z,53.50
2023-05-14T16:59:39.346Z,53.40
2023-05-14T17:02:43.672Z,53.43
2023-05-14T17:05:51.777Z,53.34
2023-05-14T17:08:56.658Z,53.28
2023-05-14T17:12:00.743Z,53.08
2023-05-14T17:15:05.673Z,53.07
2023-05-14T17:18:12.158Z,53.20
2023-05-14T17:21:17.603Z,53.22
2023-05-14T17:24:21.738Z,53.33
2023-05-14T17:27:26.404Z,53.53
2023-05-14T17:30:30.845Z,53.01
2023-05-14T17:33:35.658Z,54.02
2023-05-14T17:36:43.110Z,53.53
2023-05-14T17:39:46.936Z,53.34
2023-05-14T17:42:50.477Z,53.40
2023-05-14T17:45:54.986Z,53.73
2023-05-14T17:48:59.445Z,53.88
2023-05-14T17:52:04.941Z,55.14
2023-05-14T17:55:09.433Z,55.73
2023-05-14T17:58:16.317Z,56.90
2023-05-14T18:01:20.473Z,60.43
2023-05-14T18:04:24.376Z,59.15
2023-05-14T18:07:29.847Z,58.62
2023-05-14T18:10:33.768Z,60.38
2023-05-14T18:13:37.337Z,59.68
2023-05-14T18:16:41.395Z,59.84
2023-05-14T18:19:53.249Z,59.74
2023-05-14T18:22:58.708Z,59.59
2023-05-14T18:26:02.830Z,59.37
2023-05-14T18:29:07.544Z,58.90
2023-05-14T18:32:11.130Z,59.00
2023-05-14T18:35:15.156Z,58.87
2023-05-14T18:38:20.073Z,58.72
2023-05-14T18:41:25.765Z,58.52
2023-05-14T18:44:29.325Z,58.49
2023-05-14T18:47:34.223Z,58.30
2023-05-14T18:50:42.289Z,58.34
2023-05-14T18:53:48.343Z,58.24
2023-05-14T18:56:52.281Z,58.43
2023-05-14T18:59:58.301Z,58.51
2023-05-14T19:03:03.620Z,58.47
2023-05-14T19:06:09.096Z,57.93
2023-05-14T19:09:31.087Z,58.12
2023-05-14T19:15:54.150Z,58.15
2023-05-14T19:18:59.557Z,58.38
2023-05-14T19:25:52.034Z,58.29
2023-05-14T19:29:13.398Z,57.75
2023-05-14T19:32:36.433Z,58.11
2023-05-14T19:35:41.448Z,57.87
2023-05-14T19:38:57.984Z,57.39
2023-05-14T19:42:05.365Z,59.68
2023-05-14T19:45:10.468Z,59.81
2023-05-14T19:48:16.082Z,60.91
2023-05-14T19:51:22.788Z,60.09
2023-05-14T19:54:26.860Z,60.21
2023-05-14T19:57:35.774Z,60.65
2023-05-14T20:00:39.985Z,60.59
2023-05-14T20:03:43.838Z,61.50
2023-05-14T20:06:53.847Z,61.22
2023-05-14T20:09:58.147Z,60.84
2023-05-14T20:13:03.716Z,60.45
2023-05-14T20:16:18.005Z,60.98
2023-05-14T20:19:22.511Z,61.08
2023-05-14T20:22:26.755Z,61.10
2023-05-14T20:25:35.637Z,61.12
2023-05-14T20:28:43.522Z,60.45
2023-05-14T20:31:48.793Z,60.16
2023-05-14T20:34:52.384Z,59.85
2023-05-14T20:38:01.088Z,60.34
2023-05-14T20:41:07.937Z,60.94
2023-05-14T20:44:13.324Z,60.34
2023-05-14T20:47:21.664Z,60.55
2023-05-14T20:50:39.340Z,60.84
2023-05-14T20:53:42.955Z,60.97
2023-05-14T20:56:50.481Z,61.29
2023-05-14T21:00:24.994Z,60.17
2023-05-14T21:03:31.659Z,59.91
2023-05-14T21:06:35.993Z,59.63
2023-05-14T21:09:40.266Z,59.52
2023-05-14T21:12:44.907Z,59.62
2023-05-14T21:15:50.774Z,59.24
2023-05-14T21:18:55.240Z,59.30
2023-05-14T21:21:59.216Z,59.00
2023-05-14T21:28:30.152Z,59.25
2023-05-14T21:31:36.318Z,59.15
2023-05-14T21:34:40.504Z,58.75
2023-05-14T21:37:44.775Z,59.23
2023-05-14T21:40:49.681Z,59.43
2023-05-14T21:43:53.413Z,59.03
2023-05-14T21:46:58.699Z,58.69
2023-05-14T21:50:02.152Z,58.62
2023-05-14T21:53:07.555Z,58.43
2023-05-14T21:56:11.241Z,58.30
2023-05-14T21:59:15.247Z,58.43
2023-05-14T22:02:20.389Z,58.46
2023-05-14T22:05:26.039Z,58.17
2023-05-14T22:08:30.805Z,58.90
2023-05-14T22:11:34.689Z,58.59
2023-05-14T22:14:38.695Z,59.63
2023-05-14T22:17:44.134Z,58.79
2023-05-14T22:20:47.770Z,59.17
2023-05-14T22:23:52.139Z,58.85
2023-05-14T22:26:55.836Z,58.86
2023-05-14T22:29:59.857Z,58.47
2023-05-14T22:33:05.012Z,59.79
2023-05-14T22:36:10.606Z,59.14
2023-05-14T22:39:14.261Z,58.89
2023-05-14T22:42:20.306Z,59.15
2023-05-14T22:45:24.183Z,59.25
2023-05-14T22:48:29.804Z,59.09
2023-05-14T22:51:33.688Z,60.10
2023-05-14T22:54:37.699Z,60.54
2023-05-14T22:57:41.373Z,61.95
2023-05-14T23:00:47.984Z,62.14
2023-05-14T23:03:52.876Z,61.55
2023-05-14T23:06:57.080Z,63.45
2023-05-14T23:10:00.871Z,62.24
2023-05-14T23:13:05.466Z,61.93
2023-05-14T23:16:09.349Z,62.33
2023-05-14T23:19:14.917Z,62.31
2023-05-14T23:22:18.841Z,63.85
2023-05-14T23:25:23.136Z,64.79
2023-05-14T23:28:27.243Z,65.20
2023-05-14T23:31:31.507Z,67.31
2023-05-14T23:34:36.530Z,65.29
2023-05-14T23:37:47.093Z,65.33
2023-05-14T23:40:50.900Z,64.66
2023-05-14T23:43:55.461Z,66.90
2023-05-14T23:46:59.415Z,66.50
2023-05-14T23:50:05.665Z,66.54
2023-05-14T23:53:09.573Z,65.67
2023-05-14T23:56:13.895Z,65.52
2023-05-14T23:59:17.515Z,65.85
